createdAt,value
2023-05-10T00:00:25.228Z,10.78
2023-05-10T00:02:57.668Z,10.79
2023-05-10T00:05:29.796Z,10.82
2023-05-10T00:08:02.083Z,10.86
2023-05-10T00:10:34.256Z,10.87
2023-05-10T00:13:06.734Z,10.91
2023-05-10T00:15:39.103Z,10.92
2023-05-10T00:18:11.321Z,10.94
2023-05-10T00:20:43.678Z,10.98
2023-05-10T00:23:15.805Z,10.98
2023-05-10T00:25:48.201Z,10.96
2023-05-10T00:28:20.150Z,10.95
2023-05-10T00:30:52.278Z,10.98
2023-05-10T00:33:24.449Z,10.91
2023-05-10T00:35:56.556Z,10.87
2023-05-10T00:38:28.647Z,10.84
2023-05-10T00:41:01.518Z,10.81
2023-05-10T00:43:35.200Z,10.78
2023-05-10T00:46:09.569Z,10.78
2023-05-10T00:48:42.990Z,10.76
2023-05-10T00:51:15.832Z,10.74
2023-05-10T00:53:52.608Z,10.72
2023-05-10T00:56:25.791Z,10.74
2023-05-10T00:58:58.367Z,10.73
2023-05-10T01:01:31.948Z,10.74
2023-05-10T01:04:04.633Z,10.73
2023-05-10T01:06:36.919Z,10.72
2023-05-10T01:09:09.243Z,10.69
2023-05-10T01:11:42.266Z,10.67
2023-05-10T01:14:14.358Z,10.65
2023-05-10T01:16:49.345Z,10.63
2023-05-10T01:19:27.033Z,10.59
2023-05-10T01:22:05.011Z,10.58
2023-05-10T01:24:42.752Z,10.59
2023-05-10T01:27:20.774Z,10.60
2023-05-10T01:30:13.600Z,10.63
2023-05-10T01:32:40.144Z,10.62
2023-05-10T01:35:30.116Z,10.61
2023-05-10T01:38:11.086Z,10.60
2023-05-10T01:40:52.037Z,10.61
2023-05-10T01:43:32.867Z,10.58
2023-05-10T01:46:13.940Z,10.56
2023-05-10T01:48:52.067Z,10.54
2023-05-10T01:51:28.009Z,10.50
2023-05-10T01:54:07.670Z,10.49
2023-05-10T01:56:42.399Z,10.48
2023-05-10T01:59:17.643Z,10.48
2023-05-10T02:01:50.896Z,10.48
2023-05-10T02:04:25.677Z,10.49
2023-05-10T02:06:59.117Z,10.49
2023-05-10T02:09:34.213Z,10.54
2023-05-10T02:12:08.374Z,10.54
2023-05-10T02:14:42.587Z,10.55
2023-05-10T02:17:15.654Z,10.59
2023-05-10T02:19:49.414Z,10.61
2023-05-10T02:22:23.389Z,10.63
2023-05-10T02:24:58.156Z,10.66
2023-05-10T02:27:31.580Z,10.68
2023-05-10T02:30:04.606Z,10.69
2023-05-10T02:32:37.691Z,10.73
2023-05-10T02:35:11.845Z,10.72
2023-05-10T02:37:45.701Z,10.75
2023-05-10T02:40:19.207Z,10.79
2023-05-10T02:42:54.474Z,10.80
2023-05-10T02:45:29.573Z,10.84
2023-05-10T02:48:02.472Z,10.86
2023-05-10T02:50:36.280Z,10.89
2023-05-10T02:53:17.640Z,10.92
2023-05-10T02:55:52.679Z,10.98
2023-05-10T02:58:25.055Z,11.00
2023-05-10T03:00:57.730Z,11.02
2023-05-10T03:03:30.026Z,11.04
2023-05-10T03:06:02.147Z,11.07
2023-05-10T03:08:34.685Z,11.09
2023-05-10T03:11:26.550Z,11.12
2023-05-10T03:14:22.446Z,11.14
2023-05-10T03:17:00.657Z,11.20
2023-05-10T03:19:36.196Z,11.27
2023-05-10T03:22:11.367Z,11.33
2023-05-10T03:24:44.162Z,11.36
2023-05-10T03:27:17.742Z,11.39
2023-05-10T03:29:50.977Z,11.44
2023-05-10T03:32:23.396Z,11.50
2023-05-10T03:34:56.121Z,11.56
2023-05-10T03:37:29.333Z,11.65
2023-05-10T03:40:01.371Z,11.74
2023-05-10T03:42:34.423Z,11.82
2023-05-10T03:45:07.171Z,11.91
2023-05-10T03:47:39.805Z,11.96
2023-05-10T03:50:11.987Z,12.03
2023-05-10T03:52:45.505Z,12.14
2023-05-10T03:55:18.285Z,12.24
2023-05-10T03:57:50.819Z,12.32
2023-05-10T04:00:23.899Z,12.41
2023-05-10T04:02:57.486Z,12.48
2023-05-10T04:05:30.264Z,12.56
2023-05-10T04:08:02.441Z,12.62
2023-05-10T04:10:35.430Z,12.68
2023-05-10T04:13:07.586Z,12.74
2023-05-10T04:15:39.571Z,12.80
2023-05-10T04:18:11.668Z,12.90
2023-05-10T04:20:44.168Z,13.00
2023-05-10T04:23:17.996Z,13.11
2023-05-10T04:25:50.165Z,13.23
2023-05-10T04:28:23.030Z,13.35
2023-05-10T04:30:55.495Z,13.47
2023-05-10T04:33:27.861Z,13.55
2023-05-10T04:36:00.256Z,13.64
2023-05-10T04:38:33.302Z,13.76
2023-05-10T04:41:09.721Z,13.92
2023-05-10T04:43:41.985Z,14.07
2023-05-10T04:46:14.259Z,14.19
2023-05-10T04:48:46.730Z,14.34
2023-05-10T04:51:19.874Z,14.49
2023-05-10T04:54:05.350Z,14.64
2023-05-10T04:56:26.691Z,14.72
2023-05-10T04:58:59.611Z,14.84
2023-05-10T05:01:32.358Z,14.90
2023-05-10T05:04:04.736Z,15.01
2023-05-10T05:06:37.234Z,15.11
2023-05-10T05:09:11.593Z,15.22
2023-05-10T05:11:43.588Z,15.34
2023-05-10T05:14:15.438Z,15.67
2023-05-10T05:16:47.614Z,15.65
2023-05-10T05:19:20.107Z,15.68
2023-05-10T05:21:52.672Z,15.76
2023-05-10T05:24:25.007Z,15.91
2023-05-10T05:26:57.193Z,16.00
2023-05-10T05:29:30.015Z,16.08
2023-05-10T05:32:03.100Z,16.20
2023-05-10T05:34:35.615Z,16.43
2023-05-10T05:37:07.786Z,16.42
2023-05-10T05:39:40.281Z,16.42
2023-05-10T05:42:13.400Z,16.57
2023-05-10T05:44:46.128Z,16.66
2023-05-10T05:47:18.589Z,16.73
2023-05-10T05:49:51.372Z,16.77
2023-05-10T05:52:24.316Z,16.79
2023-05-10T05:54:56.850Z,16.84
2023-05-10T05:57:29.480Z,17.10
2023-05-10T06:00:02.078Z,17.23
2023-05-10T06:02:35.858Z,17.23
2023-05-10T06:05:08.790Z,17.60
2023-05-10T06:07:42.737Z,17.47
2023-05-10T06:10:15.278Z,17.50
2023-05-10T06:12:49.186Z,17.52
2023-05-10T06:15:21.574Z,17.62
2023-05-10T06:17:53.801Z,17.67
2023-05-10T06:20:26.002Z,17.77
2023-05-10T06:22:58.751Z,17.90
2023-05-10T06:25:32.283Z,18.00
2023-05-10T06:28:04.853Z,18.04
2023-05-10T06:30:39.238Z,18.05
2023-05-10T06:33:11.170Z,18.15
2023-05-10T06:35:43.348Z,18.49
2023-05-10T06:38:16.284Z,18.37
2023-05-10T06:40:48.742Z,18.56
2023-05-10T06:43:21.956Z,18.64
2023-05-10T06:45:54.478Z,18.55
2023-05-10T06:48:26.921Z,18.52
2023-05-10T06:50:59.310Z,18.62
2023-05-10T06:53:31.925Z,18.68
2023-05-10T06:56:04.574Z,18.64
2023-05-10T06:58:37.588Z,18.80
2023-05-10T07:01:10.644Z,19.01
2023-05-10T07:03:43.066Z,19.25
2023-05-10T07:06:29.465Z,19.41
2023-05-10T07:08:49.146Z,19.54
2023-05-10T07:11:22.916Z,19.85
2023-05-10T07:13:55.205Z,19.86
2023-05-10T07:16:27.282Z,19.84
2023-05-10T07:19:00.185Z,20.01
2023-05-10T07:21:33.984Z,20.21
2023-05-10T07:24:07.307Z,20.21
2023-05-10T07:26:39.487Z,20.12
2023-05-10T07:29:12.498Z,20.18
2023-05-10T07:31:44.797Z,19.98
2023-05-10T07:34:17.455Z,19.95
2023-05-10T07:36:50.069Z,20.06
2023-05-10T07:39:27.662Z,20.19
2023-05-10T07:41:58.267Z,20.39
2023-05-10T07:44:30.948Z,20.67
2023-05-10T07:47:04.572Z,20.92
2023-05-10T07:49:37.357Z,20.97
2023-05-10T07:52:09.688Z,20.83
2023-05-10T07:54:41.820Z,20.89
2023-05-10T07:57:15.780Z,20.81
2023-05-10T07:59:48.666Z,20.66
2023-05-10T08:02:21.172Z,20.54
2023-05-10T08:04:54.053Z,20.37
2023-05-10T08:07:27.103Z,20.38
2023-05-10T08:09:59.561Z,20.32
2023-05-10T08:12:33.527Z,20.30
2023-05-10T08:15:06.239Z,20.28
2023-05-10T08:17:38.689Z,19.98
2023-05-10T08:20:13.376Z,19.69
2023-05-10T08:22:46.775Z,19.49
2023-05-10T08:25:19.725Z,19.28
2023-05-10T08:27:52.233Z,19.14
2023-05-10T08:30:25.026Z,18.92
2023-05-10T08:32:57.308Z,18.78
2023-05-10T08:35:29.656Z,18.64
2023-05-10T08:38:02.010Z,18.44
2023-05-10T08:40:34.450Z,18.31
2023-05-10T08:43:09.871Z,18.13
2023-05-10T08:45:44.744Z,18.03
2023-05-10T08:48:17.452Z,17.90
2023-05-10T08:50:51.178Z,17.80
2023-05-10T08:53:26.049Z,17.68
2023-05-10T08:55:58.792Z,17.65
2023-05-10T08:58:32.395Z,17.64
2023-05-10T09:01:07.896Z,17.61
2023-05-10T09:03:42.255Z,17.59
2023-05-10T09:06:16.729Z,17.65
2023-05-10T09:08:52.638Z,17.88
2023-05-10T09:11:26.118Z,18.24
2023-05-10T09:13:59.120Z,18.73
2023-05-10T09:16:31.948Z,19.06
2023-05-10T09:19:05.107Z,19.60
2023-05-10T09:21:41.500Z,19.90
2023-05-10T09:24:15.457Z,20.14
2023-05-10T09:26:52.328Z,20.35
2023-05-10T09:29:25.889Z,20.61
2023-05-10T09:31:58.948Z,21.05
2023-05-10T09:34:33.907Z,21.53
2023-05-10T09:37:06.321Z,21.88
2023-05-10T09:39:40.080Z,22.43
2023-05-10T09:42:12.847Z,22.42
2023-05-10T09:44:47.475Z,22.54
2023-05-10T09:47:23.020Z,22.62
2023-05-10T09:49:57.713Z,22.68
2023-05-10T09:52:29.226Z,22.81
2023-05-10T09:55:01.110Z,23.28
2023-05-10T09:57:35.221Z,23.17
2023-05-10T10:00:11.190Z,23.28
2023-05-10T10:02:47.322Z,23.36
2023-05-10T10:05:19.670Z,23.29
2023-05-10T10:07:53.775Z,23.33
2023-05-10T10:10:27.541Z,23.19
2023-05-10T10:13:01.157Z,23.11
2023-05-10T10:15:35.397Z,22.99
2023-05-10T10:18:08.795Z,22.82
2023-05-10T10:20:41.482Z,22.59
2023-05-10T10:23:16.649Z,22.37
2023-05-10T10:25:50.199Z,22.41
2023-05-10T10:28:29.123Z,22.44
2023-05-10T10:31:04.706Z,22.54
2023-05-10T10:33:47.517Z,22.50
2023-05-10T10:36:19.329Z,22.60
2023-05-10T10:39:02.521Z,22.72
2023-05-10T10:41:45.681Z,22.88
2023-05-10T10:44:36.589Z,23.02
2023-05-10T10:47:16.454Z,22.93
2023-05-10T10:49:53.819Z,22.80
2023-05-10T10:52:30.000Z,22.65
2023-05-10T10:55:26.583Z,22.51
2023-05-10T10:58:04.094Z,22.41
2023-05-10T11:00:38.578Z,22.36
2023-05-10T11:03:16.976Z,22.46
2023-05-10T11:05:54.688Z,22.58
2023-05-10T11:08:32.412Z,22.89
2023-05-10T11:11:11.486Z,23.19
2023-05-10T11:13:51.416Z,23.37
2023-05-10T11:16:26.625Z,23.39
2023-05-10T11:19:08.562Z,23.49
2023-05-10T11:21:49.837Z,23.46
2023-05-10T11:24:25.418Z,23.25
2023-05-10T11:26:59.010Z,23.31
2023-05-10T11:29:31.274Z,23.25
2023-05-10T11:32:05.151Z,23.13
2023-05-10T11:34:37.693Z,23.09
2023-05-10T11:37:10.188Z,23.22
2023-05-10T11:39:45.715Z,23.28
2023-05-10T11:42:19.405Z,23.43
2023-05-10T11:44:51.990Z,23.50
2023-05-10T11:47:24.798Z,23.39
2023-05-10T11:49:57.615Z,23.23
2023-05-10T11:52:31.138Z,23.08
2023-05-10T11:55:04.060Z,22.96
2023-05-10T11:57:39.055Z,22.91
2023-05-10T12:00:12.058Z,22.91
2023-05-10T12:02:43.917Z,23.00
2023-05-10T12:05:16.475Z,23.09
2023-05-10T12:07:48.681Z,23.06
2023-05-10T12:10:23.872Z,22.99
2023-05-10T12:12:56.375Z,22.98
2023-05-10T12:15:30.180Z,22.86
2023-05-10T12:18:04.243Z,22.93
2023-05-10T12:20:36.195Z,23.07
2023-05-10T12:23:10.157Z,23.60
2023-05-10T12:25:42.807Z,23.20
2023-05-10T12:28:15.034Z,23.04
2023-05-10T12:30:47.412Z,22.77
2023-05-10T12:33:20.629Z,22.48
2023-05-10T12:35:55.426Z,22.12
2023-05-10T12:38:28.228Z,21.82
2023-05-10T12:41:02.281Z,22.13
2023-05-10T12:43:35.337Z,21.41
2023-05-10T12:46:13.719Z,21.20
2023-05-10T12:48:49.195Z,21.07
2023-05-10T12:51:23.716Z,20.95
2023-05-10T12:53:56.548Z,20.91
2023-05-10T12:56:29.349Z,20.93
2023-05-10T12:59:01.753Z,20.99
2023-05-10T13:01:33.961Z,21.01
2023-05-10T13:04:06.593Z,21.07
2023-05-10T13:06:38.886Z,21.10
2023-05-10T13:09:11.406Z,21.03
2023-05-10T13:11:43.879Z,20.98
2023-05-10T13:14:16.156Z,20.95
2023-05-10T13:16:48.720Z,20.94
2023-05-10T13:19:21.361Z,20.99
2023-05-10T13:21:54.449Z,21.02
2023-05-10T13:24:26.656Z,21.06
2023-05-10T13:26:58.900Z,21.12
2023-05-10T13:29:31.195Z,21.13
2023-05-10T13:32:03.569Z,21.21
2023-05-10T13:34:36.762Z,21.13
2023-05-10T13:37:09.250Z,21.13
2023-05-10T13:39:41.941Z,21.12
2023-05-10T13:42:14.231Z,21.17
2023-05-10T13:44:46.468Z,21.20
2023-05-10T13:47:19.074Z,21.17
2023-05-10T13:49:51.113Z,21.21
2023-05-10T13:52:23.398Z,21.32
2023-05-10T13:54:57.344Z,21.38
2023-05-10T13:57:30.115Z,21.33
2023-05-10T14:00:02.218Z,21.20
2023-05-10T14:02:36.662Z,21.11
2023-05-10T14:05:09.261Z,21.44
2023-05-10T14:07:41.429Z,21.11
2023-05-10T14:10:13.808Z,21.03
2023-05-10T14:12:45.994Z,20.99
2023-05-10T14:15:18.499Z,20.93
2023-05-10T14:17:51.348Z,20.95
2023-05-10T14:20:23.898Z,20.88
2023-05-10T14:22:56.435Z,20.84
2023-05-10T14:25:29.449Z,20.78
2023-05-10T14:28:01.996Z,20.69
2023-05-10T14:30:35.391Z,20.61
2023-05-10T14:33:09.049Z,20.49
2023-05-10T14:35:41.693Z,20.36
2023-05-10T14:38:14.367Z,20.30
2023-05-10T14:40:46.529Z,20.19
2023-05-10T14:43:18.979Z,20.10
2023-05-10T14:45:51.062Z,20.01
2023-05-10T14:48:23.356Z,19.93
2023-05-10T14:50:55.883Z,19.86
2023-05-10T14:53:28.411Z,19.82
2023-05-10T14:56:02.340Z,19.75
2023-05-10T14:58:34.580Z,19.69
2023-05-10T15:01:07.063Z,19.63
2023-05-10T15:03:39.919Z,19.55
2023-05-10T15:06:12.798Z,19.51
2023-05-10T15:08:45.218Z,19.46
2023-05-10T15:11:17.545Z,19.38
2023-05-10T15:13:49.625Z,19.32
2023-05-10T15:16:22.047Z,19.26
2023-05-10T15:18:54.448Z,19.19
2023-05-10T15:21:26.531Z,19.13
2023-05-10T15:23:59.105Z,19.12
2023-05-10T15:26:31.392Z,19.07
2023-05-10T15:29:03.701Z,19.04
2023-05-10T15:31:37.467Z,18.99
2023-05-10T15:34:10.215Z,18.93
2023-05-10T15:36:42.673Z,18.83
2023-05-10T15:39:14.740Z,18.75
2023-05-10T15:41:48.450Z,18.64
2023-05-10T15:44:20.845Z,18.55
2023-05-10T15:46:53.214Z,18.46
2023-05-10T15:49:25.736Z,18.41
2023-05-10T15:51:58.329Z,18.40
2023-05-10T15:54:30.784Z,18.36
2023-05-10T15:57:02.933Z,18.35
2023-05-10T15:59:36.840Z,18.29
2023-05-10T16:02:12.397Z,18.29
2023-05-10T16:04:44.860Z,18.24
2023-05-10T16:07:17.355Z,18.18
2023-05-10T16:09:49.774Z,18.11
2023-05-10T16:12:22.044Z,18.04
2023-05-10T16:14:54.320Z,17.98
2023-05-10T16:17:26.871Z,17.90
2023-05-10T16:19:59.235Z,17.82
2023-05-10T16:22:33.120Z,17.74
2023-05-10T16:25:05.586Z,17.69
2023-05-10T16:27:38.435Z,17.61
2023-05-10T16:30:11.303Z,17.53
2023-05-10T16:32:43.534Z,17.45
2023-05-10T16:35:16.230Z,17.35
2023-05-10T16:37:48.508Z,17.28
2023-05-10T16:40:20.855Z,17.19
2023-05-10T16:42:53.036Z,17.11
2023-05-10T16:45:25.885Z,17.02
2023-05-10T16:47:58.239Z,16.93
2023-05-10T16:50:30.441Z,16.85
2023-05-10T16:53:03.251Z,16.80
2023-05-10T16:55:35.538Z,16.74
2023-05-10T16:58:07.605Z,16.67
2023-05-10T17:00:39.915Z,16.60
2023-05-10T17:03:12.837Z,16.51
2023-05-10T17:05:45.331Z,16.42
2023-05-10T17:08:17.746Z,16.37
2023-05-10T17:10:49.985Z,16.31
2023-05-10T17:13:22.358Z,16.26
2023-05-10T17:15:54.874Z,16.22
2023-05-10T17:18:28.273Z,16.17
2023-05-10T17:21:00.410Z,16.35
2023-05-10T17:23:33.022Z,16.15
2023-05-10T17:26:09.964Z,16.13
2023-05-10T17:28:43.500Z,16.09
2023-05-10T17:31:15.926Z,16.07
2023-05-10T17:33:47.945Z,16.02
2023-05-10T17:36:20.805Z,16.00
2023-05-10T17:38:53.198Z,15.96
2023-05-10T17:41:25.302Z,15.96
2023-05-10T17:43:57.272Z,15.96
2023-05-10T17:46:29.567Z,15.97
2023-05-10T17:49:01.723Z,15.96
2023-05-10T17:51:33.863Z,15.93
2023-05-10T17:54:06.495Z,15.90
2023-05-10T17:56:38.982Z,15.89
2023-05-10T17:59:11.264Z,15.85
2023-05-10T18:01:43.475Z,15.81
2023-05-10T18:04:15.537Z,15.78
2023-05-10T18:06:48.271Z,15.75
2023-05-10T18:09:21.451Z,15.73
2023-05-10T18:11:53.846Z,15.71
2023-05-10T18:14:38.947Z,15.70
2023-05-10T18:17:01.455Z,15.72
2023-05-10T18:19:33.847Z,15.74
2023-05-10T18:22:08.866Z,15.75
2023-05-10T18:24:42.529Z,15.74
2023-05-10T18:27:13.815Z,15.73
2023-05-10T18:29:46.725Z,15.69
2023-05-10T18:32:18.874Z,15.50
2023-05-10T18:34:51.861Z,15.69
2023-05-10T18:37:25.186Z,15.71
2023-05-10T18:39:57.811Z,15.71
2023-05-10T18:42:30.000Z,15.68
2023-05-10T18:45:02.168Z,15.65
2023-05-10T18:47:34.998Z,15.65
2023-05-10T18:50:07.818Z,15.65
2023-05-10T18:52:39.900Z,15.64
2023-05-10T18:55:12.132Z,15.63
2023-05-10T18:57:45.274Z,15.57
2023-05-10T19:00:19.463Z,15.59
2023-05-10T19:02:51.572Z,15.58
2023-05-10T19:05:26.260Z,15.56
2023-05-10T19:07:58.625Z,15.51
2023-05-10T19:10:30.915Z,15.48
2023-05-10T19:13:03.253Z,15.32
2023-05-10T19:15:35.542Z,15.32
2023-05-10T19:18:09.270Z,15.43
2023-05-10T19:20:42.564Z,15.41
2023-05-10T19:23:15.647Z,15.41
2023-05-10T19:25:48.281Z,15.32
2023-05-10T19:28:20.841Z,15.39
2023-05-10T19:30:53.017Z,15.37
2023-05-10T19:33:25.395Z,15.34
2023-05-10T19:35:58.218Z,15.32
2023-05-10T19:38:31.012Z,15.30
2023-05-10T19:41:03.336Z,15.29
2023-05-10T19:43:38.130Z,15.28
2023-05-10T19:46:10.680Z,15.29
2023-05-10T19:48:42.918Z,15.29
2023-05-10T19:51:15.550Z,15.31
2023-05-10T19:53:48.325Z,15.31
2023-05-10T19:56:21.990Z,15.31
2023-05-10T19:58:54.281Z,15.29
2023-05-10T20:01:26.965Z,15.27
2023-05-10T20:03:59.477Z,15.26
2023-05-10T20:06:33.423Z,15.26
2023-05-10T20:09:05.868Z,15.26
2023-05-10T20:11:38.542Z,15.23
2023-05-10T20:14:10.958Z,15.18
2023-05-10T20:16:43.324Z,15.16
2023-05-10T20:19:15.753Z,15.12
2023-05-10T20:21:48.015Z,14.96
2023-05-10T20:24:20.375Z,14.96
2023-05-10T20:26:52.640Z,15.01
2023-05-10T20:29:24.895Z,14.98
2023-05-10T20:31:57.018Z,14.97
2023-05-10T20:34:29.184Z,14.83
2023-05-10T20:37:01.158Z,14.91
2023-05-10T20:39:33.351Z,14.89
2023-05-10T20:42:05.526Z,14.88
2023-05-10T20:44:37.740Z,14.88
2023-05-10T20:47:10.243Z,14.78
2023-05-10T20:49:42.844Z,14.81
2023-05-10T20:52:15.140Z,14.81
2023-05-10T20:54:47.553Z,14.79
2023-05-10T20:57:19.642Z,14.77
2023-05-10T20:59:52.089Z,14.78
2023-05-10T21:02:24.645Z,14.61
2023-05-10T21:04:58.083Z,14.62
2023-05-10T21:07:32.003Z,14.62
2023-05-10T21:10:04.081Z,14.72
2023-05-10T21:12:36.674Z,14.64
2023-05-10T21:15:09.788Z,14.67
2023-05-10T21:17:42.364Z,14.64
2023-05-10T21:20:15.245Z,14.49
2023-05-10T21:22:47.623Z,14.49
2023-05-10T21:25:21.801Z,14.56
2023-05-10T21:27:54.397Z,14.51
2023-05-10T21:30:26.969Z,14.49
2023-05-10T21:33:00.146Z,14.31
2023-05-10T21:35:32.415Z,14.31
2023-05-10T21:38:04.547Z,14.28
2023-05-10T21:40:37.410Z,14.33
2023-05-10T21:43:11.405Z,14.33
2023-05-10T21:45:43.679Z,14.32
2023-05-10T21:48:18.086Z,14.30
2023-05-10T21:50:50.332Z,14.28
2023-05-10T21:53:22.788Z,14.31
2023-05-10T21:55:58.604Z,14.27
2023-05-10T21:58:31.214Z,14.27
2023-05-10T22:01:04.180Z,14.27
2023-05-10T22:03:36.507Z,14.27
2023-05-10T22:06:08.863Z,14.27
2023-05-10T22:08:41.727Z,14.24
2023-05-10T22:11:14.183Z,14.22
2023-05-10T22:13:46.418Z,14.23
2023-05-10T22:16:18.781Z,14.20
2023-05-10T22:18:51.690Z,14.18
2023-05-10T22:21:24.569Z,14.17
2023-05-10T22:23:57.036Z,14.17
2023-05-10T22:26:29.248Z,14.17
2023-05-10T22:29:02.023Z,14.16
2023-05-10T22:31:34.522Z,14.15
2023-05-10T22:34:06.828Z,14.11
2023-05-10T22:36:39.033Z,14.10
2023-05-10T22:39:11.807Z,14.07
2023-05-10T22:41:44.370Z,14.05
2023-05-10T22:44:16.544Z,14.05
2023-05-10T22:46:48.707Z,14.03
2023-05-10T22:49:21.010Z,14.04
2023-05-10T22:51:53.312Z,14.04
2023-05-10T22:54:25.604Z,14.01
2023-05-10T22:56:58.135Z,13.98
2023-05-10T22:59:30.412Z,13.97
2023-05-10T23:02:02.926Z,13.93
2023-05-10T23:04:35.647Z,13.91
2023-05-10T23:07:08.037Z,13.89
2023-05-10T23:09:43.829Z,13.88
2023-05-10T23:12:16.026Z,13.89
2023-05-10T23:14:48.461Z,13.88
2023-05-10T23:17:20.758Z,13.86
2023-05-10T23:19:53.150Z,13.87
2023-05-10T23:22:25.682Z,13.86
2023-05-10T23:24:57.954Z,13.84
2023-05-10T23:27:33.197Z,13.83
2023-05-10T23:30:05.875Z,13.84
2023-05-10T23:32:38.212Z,13.80
2023-05-10T23:35:11.024Z,13.78
2023-05-10T23:37:43.126Z,13.74
2023-05-10T23:40:15.658Z,13.71
2023-05-10T23:42:48.006Z,13.67
2023-05-10T23:45:20.616Z,13.66
2023-05-10T23:47:52.943Z,13.64
2023-05-10T23:50:25.264Z,13.62
2023-05-10T23:52:57.416Z,13.57
2023-05-10T23:55:29.694Z,13.56
2023-05-10T23:58:01.829Z,13.52
